Time,TemperatureF,DewpointF,PressureIn,WindDirection,WindDirectionDegrees,WindSpeedMPH,WindSpeedGustMPH,Humidity,HourlyPrecipIn,Conditions,Clouds,dailyrainin,SoftwareType,DateUTC
2013-01-01 00:00:00,53.3,49.5,30.11,West,259,14.0,14.0,87,0.00,,---,0.00,VWS V14.01,2013-01-01 05:00:00,
2013-01-01 00:03:00,53.2,49.4,30.11,WSW,257,11.0,15.0,87,0.00,,---,0.00,VWS V14.01,2013-01-01 05:03:00,
2013-01-01 00:08:00,53.3,49.5,30.11,WSW,254,13.0,16.0,87,0.00,,---,0.00,VWS V14.01,2013-01-01 05:08:00,
2013-01-01 00:13:00,53.3,49.5,30.11,West,259,12.0,15.0,87,0.00,,---,0.00,VWS V14.01,2013-01-01 05:13:00,
2013-01-01 00:18:00,53.2,49.4,30.11,WSW,254,12.0,14.0,87,0.00,,---,0.00,VWS V14.01,2013-01-01 05:18:00,
2013-01-01 00:23:00,53.1,49.3,30.10,WSW,254,13.0,14.0,87,0.00,,---,0.00,VWS V14.01,2013-01-01 05:23:00,
2013-01-01 00:28:00,53.2,49.4,30.10,WSW,252,13.0,15.0,87,0.00,,---,0.00,VWS V14.01,2013-01-01 05:28:00,
2013-01-01 00:33:00,53.3,49.2,30.10,WSW,250,15.0,17.0,86,0.00,,---,0.00,VWS V14.01,2013-01-01 05:33:00,
2013-01-01 00:38:00,53.4,49.0,30.10,WSW,253,15.0,18.0,85,0.00,,---,0.00,VWS V14.01,2013-01-01 05:38:00,
2013-01-01 00:43:00,53.4,49.0,30.10,WSW,254,13.0,16.0,85,0.00,,---,0.00,VWS V14.01,2013-01-01 05:43:00,
2013-01-01 00:48:00,53.4,49.0,30.10,WSW,256,13.0,16.0,85,0.00,,---,0.00,VWS V14.01,2013-01-01 05:48:00,
2013-01-01 00:53:00,53.3,48.9,30.10,WSW,255,14.0,15.0,85,0.00,,---,0.00,VWS V14.01,2013-01-01 05:53:00,
2013-01-01 00:58:00,53.3,48.9,30.10,WSW,253,14.0,15.0,85,0.00,,---,0.00,VWS V14.01,2013-01-01 05:58:00,
2013-01-01 01:03:00,53.2,48.8,30.10,WSW,253,12.0,14.0,85,0.00,,---,0.00,VWS V14.01,2013-01-01 06:03:00,
2013-01-01 01:08:00,53.2,48.8,30.08,WSW,253,13.0,15.0,85,0.00,,---,0.00,VWS V14.01,2013-01-01 06:08:00,
2013-01-01 01:13:00,53.1,49.0,30.08,WSW,256,12.0,15.0,86,0.00,,---,0.00,VWS V14.01,2013-01-01 06:13:00,
2013-01-01 01:18:00,53.0,48.9,30.08,WSW,256,12.0,13.0,86,0.00,,---,0.00,VWS V14.01,2013-01-01 06:18:00,
2013-01-01 01:23:00,53.0,48.9,30.08,WSW,257,10.0,13.0,86,0.00,,---,0.00,VWS V14.01,2013-01-01 06:23:00,
2013-01-01 01:28:00,52.9,49.1,30.08,WSW,257,7.0,13.0,87,0.00,,---,0.00,VWS V14.01,2013-01-01 06:28:00,
2013-01-01 01:33:00,52.9,49.1,30.08,WSW,257,13.0,14.0,87,0.00,,---,0.00,VWS V14.01,2013-01-01 06:33:00,
2013-01-01 01:38:00,52.9,48.8,30.08,WSW,257,10.0,14.0,86,0.00,,---,0.00,VWS V14.01,2013-01-01 06:38:00,
2013-01-01 01:43:00,53.0,48.9,30.08,WSW,254,11.0,14.0,86,0.00,,---,0.00,VWS V14.01,2013-01-01 06:43:00,
2013-01-01 01:48:00,53.0,48.9,30.08,WSW,253,11.0,13.0,86,0.00,,---,0.00,VWS V14.01,2013-01-01 06:48:00,
2013-01-01 01:53:00,53.1,49.0,30.07,WSW,251,11.0,13.0,86,0.00,,---,0.00,VWS V14.01,2013-01-01 06:53:00,
2013-01-01 01:58:00,53.2,49.1,30.07,WSW,246,13.0,14.0,86,0.00,,---,0.00,VWS V14.01,2013-01-01 06:58:00,
2013-01-01 02:03:00,53.2,48.8,30.07,WSW,244,13.0,15.0,85,0.00,,---,0.00,VWS V14.01,2013-01-01 07:03:00,
2013-01-01 02:08:00,53.3,48.9,30.06,WSW,252,11.0,14.0,85,0.00,,---,0.00,VWS V14.01,2013-01-01 07:08:00,
2013-01-01 02:13:00,53.3,48.9,30.06,WSW,252,11.0,11.0,85,0.00,,---,0.00,VWS V14.01,2013-01-01 07:13:00,
2013-01-01 02:18:00,53.3,48.9,30.06,WSW,254,11.0,11.0,85,0.00,,---,0.00,VWS V14.01,2013-01-01 07:18:00,
2013-01-01 02:23:00,53.2,48.8,30.06,WSW,257,11.0,13.0,85,0.00,,---,0.00,VWS V14.01,2013-01-01 07:23:00,
2013-01-01 02:28:00,53.1,48.7,30.06,West,259,10.0,12.0,85,0.00,,---,0.00,VWS V14.01,2013-01-01 07:28:00,
2013-01-01 02:33:00,53.1,49.0,30.06,West,263,11.0,14.0,86,0.00,,---,0.00,VWS V14.01,2013-01-01 07:33:00,
2013-01-01 02:38:00,52.8,48.4,30.07,West,273,7.0,10.0,85,0.00,,---,0.00,VWS V14.01,2013-01-01 07:38:00,
2013-01-01 02:43:00,52.7,48.3,30.07,West,268,5.0,9.0,85,0.00,,---,0.00,VWS V14.01,2013-01-01 07:43:00,
2013-01-01 02:48:00,52.6,48.5,30.07,West,265,7.0,8.0,86,0.00,,---,0.00,VWS V14.01,2013-01-01 07:48:00,
2013-01-01 02:53:00,52.4,48.7,30.06,West,264,8.0,9.0,87,0.00,,---,0.00,VWS V14.01,2013-01-01 07:53:00,
2013-01-01 02:58:00,52.6,48.8,30.06,WSW,258,10.0,10.0,87,0.00,,---,0.00,VWS V14.01,2013-01-01 07:58:00,
2013-01-01 03:03:00,52.8,49.0,30.06,WSW,254,10.0,12.0,87,0.00,,---,0.00,VWS V14.01,2013-01-01 08:03:00,
2013-01-01 03:08:00,52.9,49.1,30.06,WSW,254,8.0,11.0,87,0.00,,---,0.00,VWS V14.01,2013-01-01 08:08:00,
2013-01-01 03:13:00,52.9,49.1,30.06,WSW,257,10.0,11.0,87,0.00,,---,0.00,VWS V14.01,2013-01-01 08:13:00,
2013-01-01 03:18:00,52.9,49.1,30.06,WSW,258,9.0,11.0,87,0.00,,---,0.00,VWS V14.01,2013-01-01 08:18:00,
2013-01-01 03:23:00,52.9,49.1,30.06,West,259,10.0,11.0,87,0.00,,---,0.00,VWS V14.01,2013-01-01 08:23:00,
2013-01-01 03:28:00,52.8,49.0,30.06,West,261,7.0,11.0,87,0.00,,---,0.00,VWS V14.01,2013-01-01 08:28:00,
2013-01-01 03:33:00,52.7,49.0,30.06,West,265,5.0,9.0,87,0.00,,---,0.00,VWS V14.01,2013-01-01 08:33:00,
2013-01-01 03:38:00,52.6,48.8,30.05,West,270,5.0,7.0,87,0.00,,---,0.00,VWS V14.01,2013-01-01 08:38:00,
2013-01-01 03:43:00,52.5,48.8,30.05,West,271,5.0,6.0,87,0.00,,---,0.00,VWS V14.01,2013-01-01 08:43:00,
2013-01-01 03:48:00,52.4,48.7,30.05,West,271,4.0,5.0,87,0.00,,---,0.00,VWS V14.01,2013-01-01 08:48:00,
2013-01-01 03:53:00,52.3,48.9,30.04,West,271,5.0,6.0,88,0.00,,---,0.00,VWS V14.01,2013-01-01 08:53:00,
2013-01-01 03:58:00,52.2,48.8,30.04,West,271,2.0,4.0,88,0.00,,---,0.00,VWS V14.01,2013-01-01 08:58:00,
2013-01-01 04:03:00,52.3,49.2,30.04,West,271,4.0,5.0,89,0.00,,---,0.00,VWS V14.01,2013-01-01 09:03:00,
2013-01-01 04:08:00,52.2,49.1,30.04,West,271,3.0,5.0,89,0.00,,---,0.00,VWS V14.01,2013-01-01 09:08:00,
2013-01-01 04:13:00,52.1,49.0,30.04,West,271,6.0,6.0,89,0.00,,---,0.00,VWS V14.01,2013-01-01 09:13:00,
2013-01-01 04:18:00,52.1,49.0,30.04,West,271,3.0,6.0,89,0.00,,---,0.00,VWS V14.01,2013-01-01 09:18:00,
2013-01-01 04:23:00,52.1,49.0,30.05,West,271,5.0,6.0,89,0.00,,---,0.00,VWS V14.01,2013-01-01 09:23:00,
2013-01-01 04:28:00,52.1,48.7,30.05,West,271,6.0,7.0,88,0.00,,---,0.00,VWS V14.01,2013-01-01 09:28:00,
2013-01-01 04:33:00,52.1,48.7,30.05,West,271,4.0,6.0,88,0.00,,---,0.00,VWS V14.01,2013-01-01 09:33:00,
2013-01-01 04:38:00,52.0,48.9,30.05,West,271,3.0,6.0,89,0.00,,---,0.00,VWS V14.01,2013-01-01 09:38:00,
2013-01-01 04:43:00,51.9,48.8,30.05,West,271,5.0,6.0,89,0.00,,---,0.00,VWS V14.01,2013-01-01 09:43:00,
2013-01-01 04:48:00,52.0,48.9,30.05,West,271,4.0,6.0,89,0.00,,---,0.00,VWS V14.01,2013-01-01 09:48:00,
2013-01-01 04:53:00,52.1,49.0,30.05,West,271,5.0,7.0,89,0.00,,---,0.00,VWS V14.01,2013-01-01 09:53:00,
2013-01-01 04:58:00,52.4,49.3,30.05,West,263,7.0,9.0,89,0.00,,---,0.00,VWS V14.01,2013-01-01 09:58:00,
2013-01-01 05:03:00,52.7,49.2,30.05,WSW,244,6.0,7.0,88,0.00,,---,0.00,VWS V14.01,2013-01-01 10:03:00,
2013-01-01 05:08:00,52.8,49.3,30.04,WSW,241,8.0,9.0,88,0.00,,---,0.00,VWS V14.01,2013-01-01 10:08:00,
2013-01-01 05:13:00,52.9,49.5,30.04,WSW,238,7.0,9.0,88,0.00,,---,0.00,VWS V14.01,2013-01-01 10:13:00,
2013-01-01 05:18:00,52.9,49.5,30.04,WSW,238,9.0,10.0,88,0.00,,---,0.00,VWS V14.01,2013-01-01 10:18:00,
2013-01-01 05:23:00,52.9,49.1,30.04,WSW,238,8.0,11.0,87,0.00,,---,0.00,VWS V14.01,2013-01-01 10:23:00,
2013-01-01 05:28:00,53.0,49.2,30.04,WSW,238,9.0,9.0,87,0.00,,---,0.00,VWS V14.01,2013-01-01 10:28:00,
2013-01-01 05:33:00,53.0,49.2,30.04,WSW,238,6.0,8.0,87,0.00,,---,0.00,VWS V14.01,2013-01-01 10:33:00,
2013-01-01 05:38:00,53.0,49.2,30.04,WSW,239,8.0,9.0,87,0.00,,---,0.00,VWS V14.01,2013-01-01 10:38:00,
2013-01-01 05:43:00,53.0,49.2,30.04,WSW,244,6.0,7.0,87,0.00,,---,0.00,VWS V14.01,2013-01-01 10:43:00,
2013-01-01 05:48:00,53.0,49.5,30.04,WSW,244,6.0,8.0,88,0.00,,---,0.00,VWS V14.01,2013-01-01 10:48:00,
2013-01-01 05:53:00,53.0,49.5,30.04,WSW,243,7.0,7.0,88,0.00,,---,0.00,VWS V14.01,2013-01-01 10:53:00,
2013-01-01 05:58:00,53.1,49.7,30.04,WSW,242,6.0,8.0,88,0.00,,---,0.00,VWS V14.01,2013-01-01 10:58:00,
2013-01-01 06:03:00,53.2,49.7,30.04,WSW,242,4.0,6.0,88,0.00,,---,0.00,VWS V14.01,2013-01-01 11:03:00,
2013-01-01 06:08:00,53.0,49.5,30.05,WSW,245,4.0,6.0,88,0.00,,---,0.00,VWS V14.01,2013-01-01 11:08:00,
2013-01-01 06:13:00,53.0,49.5,30.05,WSW,245,4.0,5.0,88,0.00,,---,0.00,VWS V14.01,2013-01-01 11:13:00,
2013-01-01 06:18:00,53.0,49.5,30.05,WSW,245,4.0,6.0,88,0.00,,---,0.00,VWS V14.01,2013-01-01 11:18:00,
2013-01-01 06:23:00,53.1,50.0,30.05,WSW,245,6.0,6.0,89,0.00,,---,0.00,VWS V14.01,2013-01-01 11:23:00,
2013-01-01 06:28:00,53.1,50.0,30.05,WSW,237,8.0,9.0,89,0.00,,---,0.00,VWS V14.01,2013-01-01 11:28:00,
2013-01-01 06:33:00,53.2,49.7,30.05,SW,235,9.0,10.0,88,0.00,,---,0.00,VWS V14.01,2013-01-01 11:33:00,
2013-01-01 06:38:00,53.3,49.8,30.05,WSW,240,9.0,10.0,88,0.00,,---,0.00,VWS V14.01,2013-01-01 11:38:00,
2013-01-01 06:43:00,53.4,49.6,30.05,WSW,244,8.0,10.0,87,0.00,,---,0.00,VWS V14.01,2013-01-01 11:43:00,
2013-01-01 06:48:00,53.4,49.6,30.05,WSW,240,7.0,10.0,87,0.00,,---,0.00,VWS V14.01,2013-01-01 11:48:00,
2013-01-01 06:53:00,53.4,49.6,30.04,WSW,240,7.0,10.0,87,0.00,,---,0.00,VWS V14.01,2013-01-01 11:53:00,
2013-01-01 06:58:00,53.5,49.7,30.04,WSW,242,7.0,11.0,87,0.00,,---,0.00,VWS V14.01,2013-01-01 11:58:00,
2013-01-01 07:03:00,53.5,50.0,30.04,WSW,243,6.0,10.0,88,0.00,,---,0.00,VWS V14.01,2013-01-01 12:03:00,
2013-01-01 07:08:00,53.5,50.0,30.05,WSW,247,6.0,7.0,88,0.00,,---,0.00,VWS V14.01,2013-01-01 12:08:00,
2013-01-01 07:13:00,53.4,49.9,30.05,WSW,250,7.0,7.0,88,0.00,,---,0.00,VWS V14.01,2013-01-01 12:13:00,
2013-01-01 07:18:00,53.3,49.8,30.05,WSW,253,6.0,7.0,88,0.00,,---,0.00,VWS V14.01,2013-01-01 12:18:00,
2013-01-01 07:23:00,53.2,49.7,30.06,WSW,254,5.0,8.0,88,0.00,,---,0.00,VWS V14.01,2013-01-01 12:23:00,
2013-01-01 07:28:00,53.2,49.7,30.06,WSW,254,5.0,7.0,88,0.00,,---,0.00,VWS V14.01,2013-01-01 12:28:00,
2013-01-01 07:33:00,53.2,49.7,30.06,WSW,254,7.0,7.0,88,0.00,,---,0.00,VWS V14.01,2013-01-01 12:33:00,
2013-01-01 07:38:00,53.2,49.7,30.05,WSW,252,7.0,8.0,88,0.00,,---,0.00,VWS V14.01,2013-01-01 12:38:00,
2013-01-01 07:43:00,53.3,49.8,30.05,WSW,249,7.0,8.0,88,0.00,,---,0.00,VWS V14.01,2013-01-01 12:43:00,
2013-01-01 07:48:00,53.3,49.8,30.05,WSW,249,7.0,9.0,88,0.00,,---,0.00,VWS V14.01,2013-01-01 12:48:00,
2013-01-01 07:53:00,53.3,50.2,30.06,WSW,250,7.0,10.0,89,0.00,,---,0.00,VWS V14.01,2013-01-01 12:53:00,
2013-01-01 07:58:00,53.2,50.0,30.06,WSW,254,7.0,9.0,89,0.00,,---,0.00,VWS V14.01,2013-01-01 12:58:00,
2013-01-01 08:03:00,53.2,50.0,30.06,WSW,254,6.0,9.0,89,0.00,,---,0.00,VWS V14.01,2013-01-01 13:03:00,
2013-01-01 08:08:00,53.2,50.0,30.07,WSW,254,8.0,11.0,89,0.00,,---,0.00,VWS V14.01,2013-01-01 13:08:00,
2013-01-01 08:13:00,53.2,50.0,30.07,WSW,254,7.0,9.0,89,0.00,,---,0.00,VWS V14.01,2013-01-01 13:13:00,
2013-01-01 08:18:00,53.1,50.0,30.07,WSW,255,7.0,10.0,89,0.00,,---,0.00,VWS V14.01,2013-01-01 13:18:00,
2013-01-01 08:23:00,53.1,50.0,30.07,WSW,258,5.0,9.0,89,0.00,,---,0.00,VWS V14.01,2013-01-01 13:23:00,
2013-01-01 08:28:00,53.0,49.8,30.07,West,261,6.0,9.0,89,0.00,,---,0.00,VWS V14.01,2013-01-01 13:28:00,
2013-01-01 08:33:00,52.9,50.0,30.07,West,261,5.0,7.0,90,0.00,,---,0.00,VWS V14.01,2013-01-01 13:33:00,
2013-01-01 08:38:00,52.8,50.0,30.07,West,261,7.0,7.0,90,0.00,,---,0.00,VWS V14.01,2013-01-01 13:38:00,
2013-01-01 08:43:00,52.7,49.8,30.07,West,261,5.0,7.0,90,0.00,,---,0.00,VWS V14.01,2013-01-01 13:43:00,
2013-01-01 08:48:00,52.8,50.0,30.07,West,261,6.0,6.0,90,0.00,,---,0.00,VWS V14.01,2013-01-01 13:48:00,
2013-01-01 08:53:00,52.8,50.2,30.07,West,260,6.0,8.0,91,0.00,,---,0.00,VWS V14.01,2013-01-01 13:53:00,
2013-01-01 08:58:00,52.8,50.2,30.07,West,259,6.0,7.0,91,0.00,,---,0.00,VWS V14.01,2013-01-01 13:58:00,
2013-01-01 09:03:00,52.8,50.2,30.07,West,259,6.0,7.0,91,0.00,,---,0.00,VWS V14.01,2013-01-01 14:03:00,
2013-01-01 09:08:00,52.8,50.2,30.08,West,259,7.0,7.0,91,0.00,,---,0.00,VWS V14.01,2013-01-01 14:08:00,
2013-01-01 09:13:00,52.9,50.3,30.08,West,259,5.0,6.0,91,0.00,,---,0.00,VWS V14.01,2013-01-01 14:13:00,
2013-01-01 09:18:00,52.9,50.3,30.08,West,259,6.0,6.0,91,0.00,,---,0.00,VWS V14.01,2013-01-01 14:18:00,
2013-01-01 09:23:00,53.0,50.5,30.07,West,259,5.0,6.0,91,0.00,,---,0.00,VWS V14.01,2013-01-01 14:23:00,
2013-01-01 09:28:00,53.0,50.5,30.07,West,259,4.0,5.0,91,0.00,,---,0.00,VWS V14.01,2013-01-01 14:28:00,
2013-01-01 09:33:00,53.0,50.2,30.07,West,259,4.0,5.0,90,0.00,,---,0.00,VWS V14.01,2013-01-01 14:33:00,
2013-01-01 09:38:00,53.0,50.5,30.08,West,259,4.0,6.0,91,0.00,,---,0.00,VWS V14.01,2013-01-01 14:38:00,
2013-01-01 09:43:00,53.1,50.5,30.08,West,259,4.0,5.0,91,0.00,,---,0.00,VWS V14.01,2013-01-01 14:43:00,
2013-01-01 09:48:00,53.1,50.5,30.08,West,259,5.0,5.0,91,0.00,,---,0.00,VWS V14.01,2013-01-01 14:48:00,
2013-01-01 09:53:00,53.1,50.2,30.08,West,259,4.0,6.0,90,0.00,,---,0.00,VWS V14.01,2013-01-01 14:53:00,
2013-01-01 09:58:00,53.2,50.3,30.08,West,259,5.0,6.0,90,0.00,,---,0.00,VWS V14.01,2013-01-01 14:58:00,
2013-01-01 10:03:00,53.2,50.3,30.08,West,259,6.0,6.0,90,0.00,,---,0.00,VWS V14.01,2013-01-01 15:03:00,
2013-01-01 10:08:00,53.2,50.0,30.08,West,259,5.0,6.0,89,0.00,,---,0.00,VWS V14.01,2013-01-01 15:08:00,
2013-01-01 10:13:00,53.2,50.0,30.08,West,260,3.0,6.0,89,0.00,,---,0.00,VWS V14.01,2013-01-01 15:13:00,
2013-01-01 10:18:00,53.4,50.2,30.08,West,273,5.0,7.0,89,0.00,,---,0.00,VWS V14.01,2013-01-01 15:18:00,
2013-01-01 10:23:00,53.7,49.9,30.08,West,269,9.0,10.0,87,0.00,,---,0.00,VWS V14.01,2013-01-01 15:23:00,
2013-01-01 10:28:00,53.8,49.7,30.08,West,264,5.0,7.0,86,0.00,,---,0.00,VWS V14.01,2013-01-01 15:28:00,
2013-01-01 10:33:00,53.6,49.8,30.08,West,262,5.0,6.0,87,0.00,,---,0.00,VWS V14.01,2013-01-01 15:33:00,
2013-01-01 10:38:00,53.5,49.7,30.08,West,262,6.0,7.0,87,0.00,,---,0.00,VWS V14.01,2013-01-01 15:38:00,
2013-01-01 10:43:00,53.5,49.7,30.08,West,260,7.0,9.0,87,0.00,,---,0.00,VWS V14.01,2013-01-01 15:43:00,
2013-01-01 10:48:00,53.5,49.7,30.08,WSW,253,6.0,7.0,87,0.00,,---,0.00,VWS V14.01,2013-01-01 15:48:00,
2013-01-01 10:53:00,53.5,50.0,30.08,WSW,251,6.0,7.0,88,0.00,,---,0.00,VWS V14.01,2013-01-01 15:53:00,
2013-01-01 10:58:00,53.5,50.0,30.08,WSW,249,6.0,8.0,88,0.00,,---,0.00,VWS V14.01,2013-01-01 15:58:00,
2013-01-01 11:03:00,53.5,50.0,30.08,WSW,248,6.0,7.0,88,0.00,,---,0.00,VWS V14.01,2013-01-01 16:03:00,
2013-01-01 11:08:00,53.5,50.0,30.07,WSW,248,6.0,8.0,88,0.00,,---,0.00,VWS V14.01,2013-01-01 16:08:00,
2013-01-01 11:13:00,53.6,50.1,30.07,WSW,248,6.0,7.0,88,0.00,,---,0.00,VWS V14.01,2013-01-01 16:13:00,
2013-01-01 11:18:00,53.6,50.1,30.07,WSW,248,6.0,7.0,88,0.00,,---,0.00,VWS V14.01,2013-01-01 16:18:00,
2013-01-01 11:23:00,53.5,50.0,30.07,WSW,246,6.0,7.0,88,0.00,,---,0.00,VWS V14.01,2013-01-01 16:23:00,
2013-01-01 11:28:00,53.5,50.0,30.07,WSW,245,8.0,9.0,88,0.00,,---,0.00,VWS V14.01,2013-01-01 16:28:00,
2013-01-01 11:33:00,53.4,49.9,30.07,WSW,245,5.0,7.0,88,0.00,,---,0.00,VWS V14.01,2013-01-01 16:33:00,
2013-01-01 11:38:00,53.5,50.0,30.05,WSW,244,6.0,7.0,88,0.00,,---,0.00,VWS V14.01,2013-01-01 16:38:00,
2013-01-01 11:43:00,53.4,49.9,30.05,WSW,245,6.0,9.0,88,0.00,,---,0.00,VWS V14.01,2013-01-01 16:43:00,
2013-01-01 11:48:00,53.4,49.9,30.05,WSW,245,7.0,9.0,88,0.00,,---,0.00,VWS V14.01,2013-01-01 16:48:00,
2013-01-01 11:53:00,53.3,49.8,30.04,WSW,245,8.0,8.0,88,0.00,,---,0.00,VWS V14.01,2013-01-01 16:53:00,
2013-01-01 11:58:00,53.3,49.8,30.04,WSW,245,5.0,7.0,88,0.00,,---,0.00,VWS V14.01,2013-01-01 16:58:00,
2013-01-01 12:03:00,53.3,49.8,30.04,WSW,245,5.0,7.0,88,0.00,,---,0.00,VWS V14.01,2013-01-01 17:03:00,
2013-01-01 12:08:00,53.3,49.8,30.03,WSW,244,5.0,7.0,88,0.00,,---,0.00,VWS V14.01,2013-01-01 17:08:00,
2013-01-01 12:13:00,53.3,49.8,30.03,WSW,244,7.0,7.0,88,0.00,,---,0.00,VWS V14.01,2013-01-01 17:13:00,
2013-01-01 12:18:00,53.4,49.9,30.03,WSW,241,7.0,9.0,88,0.00,,---,0.00,VWS V14.01,2013-01-01 17:18:00,
2013-01-01 12:23:00,53.4,49.9,30.02,WSW,241,6.0,9.0,88,0.00,,---,0.00,VWS V14.01,2013-01-01 17:23:00,
2013-01-01 12:28:00,53.5,50.0,30.02,WSW,241,5.0,7.0,88,0.00,,---,0.00,VWS V14.01,2013-01-01 17:28:00,
2013-01-01 12:33:00,53.5,50.0,30.02,WSW,241,6.0,6.0,88,0.00,,---,0.00,VWS V14.01,2013-01-01 17:33:00,
2013-01-01 12:38:00,53.5,49.7,30.01,WSW,240,7.0,7.0,87,0.00,,---,0.00,VWS V14.01,2013-01-01 17:38:00,
2013-01-01 12:43:00,53.6,49.8,30.01,SW,235,7.0,10.0,87,0.00,,---,0.00,VWS V14.01,2013-01-01 17:43:00,
2013-01-01 12:48:00,53.7,49.9,30.01,SW,229,9.0,10.0,87,0.00,,---,0.00,VWS V14.01,2013-01-01 17:48:00,
2013-01-01 12:53:00,53.7,49.9,30.00,SW,221,11.0,12.0,87,0.00,,---,0.00,VWS V14.01,2013-01-01 17:53:00,
2013-01-01 12:58:00,53.7,49.9,30.00,SW,218,11.0,12.0,87,0.00,,---,0.00,VWS V14.01,2013-01-01 17:58:00,
2013-01-01 13:03:00,53.8,50.0,30.00,SW,221,8.0,11.0,87,0.00,,---,0.00,VWS V14.01,2013-01-01 18:03:00,
2013-01-01 13:08:00,53.8,50.0,29.98,SW,219,10.0,12.0,87,0.00,,---,0.00,VWS V14.01,2013-01-01 18:08:00,
2013-01-01 13:13:00,53.8,50.0,29.98,SW,222,9.0,11.0,87,0.00,,---,0.00,VWS V14.01,2013-01-01 18:13:00,
2013-01-01 13:18:00,53.9,50.1,29.98,SW,230,11.0,11.0,87,0.00,,---,0.00,VWS V14.01,2013-01-01 18:18:00,
2013-01-01 13:23:00,54.0,50.2,29.98,SW,231,10.0,12.0,87,0.00,,---,0.00,VWS V14.01,2013-01-01 18:23:00,
2013-01-01 13:28:00,54.1,50.3,29.98,SW,229,9.0,13.0,87,0.00,,---,0.00,VWS V14.01,2013-01-01 18:28:00,
2013-01-01 13:33:00,54.1,50.3,29.98,WSW,237,9.0,12.0,87,0.00,,---,0.00,VWS V14.01,2013-01-01 18:33:00,
2013-01-01 13:38:00,54.1,50.3,29.98,SW,232,11.0,13.0,87,0.00,,---,0.00,VWS V14.01,2013-01-01 18:38:00,
2013-01-01 13:43:00,54.2,50.4,29.98,SW,232,12.0,15.0,87,0.00,,---,0.00,VWS V14.01,2013-01-01 18:43:00,
2013-01-01 13:48:00,54.1,50.6,29.98,SW,234,12.0,14.0,88,0.00,,---,0.00,VWS V14.01,2013-01-01 18:48:00,
2013-01-01 13:53:00,54.1,50.6,29.97,SW,233,13.0,17.0,88,0.00,,---,0.00,VWS V14.01,2013-01-01 18:53:00,
2013-01-01 13:58:00,54.3,50.5,29.97,SW,232,17.0,18.0,87,0.00,,---,0.00,VWS V14.01,2013-01-01 18:58:00,
2013-01-01 14:03:00,54.4,50.6,29.97,WSW,239,19.0,21.0,87,0.00,,---,0.00,VWS V14.01,2013-01-01 19:03:00,
2013-01-01 14:08:00,54.4,50.6,29.97,WSW,242,17.0,21.0,87,0.00,,---,0.00,VWS V14.01,2013-01-01 19:08:00,
2013-01-01 14:13:00,54.3,50.8,29.97,WSW,243,21.0,21.0,88,0.00,,---,0.00,VWS V14.01,2013-01-01 19:13:00,
2013-01-01 14:18:00,54.4,50.9,29.97,WSW,244,19.0,23.0,88,0.00,,---,0.00,VWS V14.01,2013-01-01 19:18:00,
2013-01-01 14:23:00,54.4,50.9,29.96,WSW,242,19.0,21.0,88,0.00,,---,0.00,VWS V14.01,2013-01-01 19:23:00,
2013-01-01 14:28:00,54.3,50.8,29.96,WSW,242,20.0,24.0,88,0.00,,---,0.00,VWS V14.01,2013-01-01 19:28:00,
2013-01-01 14:33:00,54.4,50.9,29.96,WSW,246,18.0,24.0,88,0.00,,---,0.00,VWS V14.01,2013-01-01 19:33:00,
2013-01-01 14:38:00,54.3,50.8,29.96,WSW,253,19.0,20.0,88,0.00,,---,0.00,VWS V14.01,2013-01-01 19:38:00,
2013-01-01 14:43:00,54.2,51.0,29.96,WSW,250,17.0,19.0,89,0.00,,---,0.00,VWS V14.01,2013-01-01 19:43:00,
2013-01-01 14:48:00,54.0,50.8,29.96,WSW,246,13.0,17.0,89,0.00,,---,0.00,VWS V14.01,2013-01-01 19:48:00,
2013-01-01 14:53:00,53.9,50.7,29.97,WSW,246,15.0,16.0,89,0.00,,---,0.00,VWS V14.01,2013-01-01 19:53:00,
2013-01-01 14:58:00,53.9,50.7,29.97,WSW,248,12.0,17.0,89,0.00,,---,0.00,VWS V14.01,2013-01-01 19:58:00,
2013-01-01 15:03:00,53.9,50.7,29.97,WSW,242,15.0,18.0,89,0.00,,---,0.00,VWS V14.01,2013-01-01 20:03:00,
2013-01-01 15:08:00,53.9,50.7,29.96,WSW,239,17.0,20.0,89,0.00,,---,0.00,VWS V14.01,2013-01-01 20:08:00,
2013-01-01 15:13:00,53.9,50.7,29.96,WSW,242,16.0,19.0,89,0.00,,---,0.00,VWS V14.01,2013-01-01 20:13:00,
2013-01-01 15:18:00,53.9,50.7,29.96,WSW,243,18.0,21.0,89,0.00,,---,0.00,VWS V14.01,2013-01-01 20:18:00,
2013-01-01 15:23:00,53.8,50.6,29.96,WSW,237,17.0,20.0,89,0.00,,---,0.00,VWS V14.01,2013-01-01 20:23:00,
2013-01-01 15:28:00,53.7,50.5,29.96,SW,236,18.0,19.0,89,0.00,,---,0.00,VWS V14.01,2013-01-01 20:28:00,
2013-01-01 15:33:00,53.8,50.6,29.96,WSW,243,17.0,19.0,89,0.00,,---,0.00,VWS V14.01,2013-01-01 20:33:00,
2013-01-01 15:38:00,53.9,50.7,29.96,WSW,242,17.0,20.0,89,0.00,,---,0.00,VWS V14.01,2013-01-01 20:38:00,
2013-01-01 15:43:00,53.9,50.7,29.96,SW,233,16.0,20.0,89,0.00,,---,0.00,VWS V14.01,2013-01-01 20:43:00,
2013-01-01 15:48:00,53.9,50.7,29.96,SW,226,18.0,22.0,89,0.00,,---,0.00,VWS V14.01,2013-01-01 20:48:00,
2013-01-01 15:53:00,53.9,51.0,29.94,SW,232,15.0,20.0,90,0.00,,---,0.00,VWS V14.01,2013-01-01 20:53:00,
2013-01-01 15:58:00,53.9,51.0,29.94,SW,236,15.0,20.0,90,0.00,,---,0.00,VWS V14.01,2013-01-01 20:58:00,
2013-01-01 16:03:00,54.0,51.1,29.94,SW,232,14.0,20.0,90,0.00,,---,0.00,VWS V14.01,2013-01-01 21:03:00,
2013-01-01 16:08:00,54.1,51.2,29.93,SW,234,17.0,18.0,90,0.00,,---,0.00,VWS V14.01,2013-01-01 21:08:00,
2013-01-01 16:13:00,54.2,51.3,29.93,WSW,251,14.0,19.0,90,0.00,,---,0.00,VWS V14.01,2013-01-01 21:13:00,
2013-01-01 16:18:00,54.2,51.3,29.93,WSW,251,13.0,17.0,90,0.00,,---,0.00,VWS V14.01,2013-01-01 21:18:00,
2013-01-01 16:23:00,54.1,51.2,29.94,WSW,245,14.0,18.0,90,0.00,,---,0.00,VWS V14.01,2013-01-01 21:23:00,
2013-01-01 16:28:00,54.3,51.4,29.94,WSW,244,21.0,23.0,90,0.00,,---,0.00,VWS V14.01,2013-01-01 21:28:00,
2013-01-01 16:33:00,54.4,51.5,29.94,WSW,242,19.0,22.0,90,0.00,,---,0.00,VWS V14.01,2013-01-01 21:33:00,
2013-01-01 16:38:00,54.4,51.5,29.94,WSW,242,19.0,20.0,90,0.00,,---,0.00,VWS V14.01,2013-01-01 21:38:00,
2013-01-01 16:43:00,54.5,51.6,29.94,WSW,238,19.0,22.0,90,0.00,,---,0.00,VWS V14.01,2013-01-01 21:43:00,
2013-01-01 16:48:00,54.5,51.3,29.94,WSW,244,20.0,21.0,89,0.00,,---,0.00,VWS V14.01,2013-01-01 21:48:00,
2013-01-01 16:53:00,54.4,51.2,29.94,WSW,256,19.0,20.0,89,0.00,,---,0.00,VWS V14.01,2013-01-01 21:53:00,
2013-01-01 16:58:00,54.2,51.3,29.94,West,260,17.0,20.0,90,0.00,,---,0.00,VWS V14.01,2013-01-01 21:58:00,
2013-01-01 17:03:00,54.1,51.2,29.94,West,267,12.0,15.0,90,0.00,,---,0.00,VWS V14.01,2013-01-01 22:03:00,
2013-01-01 17:08:00,54.0,51.1,29.96,West,280,7.0,14.0,90,0.00,,---,0.00,VWS V14.01,2013-01-01 22:08:00,
2013-01-01 17:13:00,53.9,51.0,29.96,West,264,13.0,14.0,90,0.00,,---,0.00,VWS V14.01,2013-01-01 22:13:00,
2013-01-01 17:18:00,53.7,51.1,29.96,West,269,8.0,13.0,91,0.00,,---,0.00,VWS V14.01,2013-01-01 22:18:00,
2013-01-01 17:23:00,53.6,51.0,29.95,West,270,9.0,12.0,91,0.00,,---,0.00,VWS V14.01,2013-01-01 22:23:00,
2013-01-01 17:28:00,53.5,50.9,29.95,West,268,8.0,12.0,91,0.00,,---,0.00,VWS V14.01,2013-01-01 22:28:00,
2013-01-01 17:33:00,53.5,50.9,29.95,West,259,12.0,14.0,91,0.00,,---,0.00,VWS V14.01,2013-01-01 22:33:00,
2013-01-01 17:38:00,53.5,51.2,29.95,WSW,258,11.0,14.0,92,0.00,,---,0.00,VWS V14.01,2013-01-01 22:38:00,
2013-01-01 17:43:00,53.5,51.2,29.95,WSW,254,6.0,11.0,92,0.00,,---,0.00,VWS V14.01,2013-01-01 22:43:00,
2013-01-01 17:48:00,53.5,50.9,29.95,WSW,252,11.0,15.0,91,0.00,,---,0.00,VWS V14.01,2013-01-01 22:48:00,
2013-01-01 17:53:00,53.6,51.0,29.95,WSW,251,11.0,14.0,91,0.00,,---,0.00,VWS V14.01,2013-01-01 22:53:00,
2013-01-01 17:58:00,53.6,51.0,29.95,WSW,252,9.0,13.0,91,0.00,,---,0.00,VWS V14.01,2013-01-01 22:58:00,
2013-01-01 18:03:00,53.6,51.0,29.95,WSW,251,10.0,13.0,91,0.00,,---,0.00,VWS V14.01,2013-01-01 23:03:00,
2013-01-01 18:08:00,53.6,51.0,29.96,WSW,254,11.0,12.0,91,0.00,,---,0.00,VWS V14.01,2013-01-01 23:08:00,
2013-01-01 18:13:00,53.6,51.0,29.96,WSW,249,11.0,12.0,91,0.00,,---,0.00,VWS V14.01,2013-01-01 23:13:00,
2013-01-01 18:18:00,53.7,51.4,29.96,WSW,245,13.0,15.0,92,0.00,,---,0.00,VWS V14.01,2013-01-01 23:18:00,
2013-01-01 18:23:00,53.7,51.1,29.95,WSW,246,11.0,14.0,91,0.00,,---,0.00,VWS V14.01,2013-01-01 23:23:00,
2013-01-01 18:28:00,53.6,51.3,29.95,WSW,247,12.0,14.0,92,0.00,,---,0.00,VWS V14.01,2013-01-01 23:28:00,
2013-01-01 18:33:00,53.7,51.4,29.95,WSW,245,16.0,16.0,92,0.00,,---,0.00,VWS V14.01,2013-01-01 23:33:00,
2013-01-01 18:38:00,53.7,51.4,29.96,WSW,246,14.0,15.0,92,0.00,,---,0.00,VWS V14.01,2013-01-01 23:38:00,
2013-01-01 18:43:00,53.7,51.4,29.96,WSW,247,10.0,14.0,92,0.00,,---,0.00,VWS V14.01,2013-01-01 23:43:00,
2013-01-01 18:48:00,53.7,51.4,29.96,WSW,249,10.0,15.0,92,0.00,,---,0.00,VWS V14.01,2013-01-01 23:48:00,
2013-01-01 18:53:00,53.6,51.3,29.96,WSW,248,13.0,14.0,92,0.00,,---,0.00,VWS V14.01,2013-01-01 23:53:00,
2013-01-01 18:58:00,53.7,51.4,29.96,WSW,244,13.0,14.0,92,0.00,,---,0.00,VWS V14.01,2013-01-01 23:58:00,
2013-01-01 19:03:00,53.7,51.4,29.96,WSW,239,11.0,14.0,92,0.00,,---,0.00,VWS V14.01,2013-01-02 00:03:00,
2013-01-01 19:08:00,53.7,51.4,29.96,WSW,243,11.0,13.0,92,0.00,,---,0.00,VWS V14.01,2013-01-02 00:08:00,
2013-01-01 19:13:00,53.7,51.4,29.96,WSW,248,10.0,11.0,92,0.00,,---,0.00,VWS V14.01,2013-01-02 00:13:00,
2013-01-01 19:18:00,53.7,51.4,29.96,WSW,255,7.0,10.0,92,0.00,,---,0.00,VWS V14.01,2013-01-02 00:18:00,
2013-01-01 19:23:00,53.6,51.3,29.97,WSW,258,4.0,5.0,92,0.00,,---,0.00,VWS V14.01,2013-01-02 00:23:00,
2013-01-01 19:28:00,53.6,51.6,29.97,West,272,3.0,6.0,93,0.00,,---,0.00,VWS V14.01,2013-01-02 00:28:00,
2013-01-01 19:33:00,53.6,51.6,29.97,West,267,5.0,7.0,93,0.00,,---,0.00,VWS V14.01,2013-01-02 00:33:00,
2013-01-01 19:38:00,53.5,51.5,29.97,West,263,6.0,8.0,93,0.00,,---,0.00,VWS V14.01,2013-01-02 00:38:00,
2013-01-01 19:43:00,53.4,51.4,29.97,West,261,5.0,6.0,93,0.00,,---,0.00,VWS V14.01,2013-01-02 00:43:00,
2013-01-01 19:48:00,53.3,51.3,29.97,West,261,5.0,5.0,93,0.00,,---,0.00,VWS V14.01,2013-01-02 00:48:00,
2013-01-01 19:53:00,53.3,51.3,29.96,West,261,5.0,6.0,93,0.00,,---,0.00,VWS V14.01,2013-01-02 00:53:00,
2013-01-01 19:58:00,53.4,51.4,29.96,WSW,256,5.0,6.0,93,0.00,,---,0.00,VWS V14.01,2013-01-02 00:58:00,
2013-01-01 20:03:00,53.3,51.3,29.96,WSW,254,6.0,7.0,93,0.00,,---,0.00,VWS V14.01,2013-01-02 01:03:00,
2013-01-01 20:08:00,53.3,51.3,29.97,WSW,254,5.0,8.0,93,0.00,,---,0.00,VWS V14.01,2013-01-02 01:08:00,
2013-01-01 20:13:00,53.3,51.3,29.97,WSW,254,6.0,9.0,93,0.00,,---,0.00,VWS V14.01,2013-01-02 01:13:00,
2013-01-01 20:18:00,53.3,51.6,29.97,WSW,254,5.0,7.0,94,0.00,,---,0.00,VWS V14.01,2013-01-02 01:18:00,
2013-01-01 20:23:00,53.3,51.6,29.97,WSW,253,6.0,7.0,94,0.00,,---,0.00,VWS V14.01,2013-01-02 01:23:00,
2013-01-01 20:28:00,53.3,51.6,29.97,WSW,246,8.0,9.0,94,0.00,,---,0.00,VWS V14.01,2013-01-02 01:28:00,
2013-01-01 20:33:00,53.3,51.6,29.97,WSW,239,10.0,11.0,94,0.00,,---,0.00,VWS V14.01,2013-01-02 01:33:00,
2013-01-01 20:38:00,53.4,51.7,29.96,SW,236,10.0,11.0,94,0.00,,---,0.00,VWS V14.01,2013-01-02 01:38:00,
2013-01-01 20:43:00,53.4,51.7,29.96,WSW,237,10.0,13.0,94,0.00,,---,0.00,VWS V14.01,2013-01-02 01:43:00,
2013-01-01 20:48:00,53.5,51.8,29.96,WSW,242,14.0,15.0,94,0.00,,---,0.00,VWS V14.01,2013-01-02 01:48:00,
2013-01-01 20:53:00,53.5,51.8,29.96,WSW,242,10.0,13.0,94,0.00,,---,0.00,VWS V14.01,2013-01-02 01:53:00,
2013-01-01 20:58:00,53.5,51.8,29.96,SW,233,15.0,15.0,94,0.00,,---,0.00,VWS V14.01,2013-01-02 01:58:00,
2013-01-01 21:03:00,53.5,51.8,29.96,WSW,238,13.0,16.0,94,0.00,,---,0.00,VWS V14.01,2013-01-02 02:03:00,
2013-01-01 21:08:00,53.6,51.9,29.96,WSW,239,14.0,15.0,94,0.00,,---,0.00,VWS V14.01,2013-01-02 02:08:00,
2013-01-01 21:13:00,53.6,51.9,29.96,WSW,239,12.0,14.0,94,0.00,,---,0.00,VWS V14.01,2013-01-02 02:13:00,
2013-01-01 21:18:00,53.6,51.9,29.96,WSW,241,13.0,15.0,94,0.00,,---,0.00,VWS V14.01,2013-01-02 02:18:00,
2013-01-01 21:23:00,53.6,51.9,29.96,WSW,239,12.0,16.0,94,0.00,,---,0.00,VWS V14.01,2013-01-02 02:23:00,
2013-01-01 21:28:00,53.7,52.0,29.96,WSW,245,13.0,16.0,94,0.00,,---,0.00,VWS V14.01,2013-01-02 02:28:00,
2013-01-01 21:33:00,53.7,52.0,29.96,WSW,245,12.0,14.0,94,0.00,,---,0.00,VWS V14.01,2013-01-02 02:33:00,
2013-01-01 21:38:00,53.7,52.0,29.96,WSW,242,12.0,15.0,94,0.00,,---,0.00,VWS V14.01,2013-01-02 02:38:00,
2013-01-01 21:43:00,53.7,52.0,29.96,WSW,241,14.0,16.0,94,0.00,,---,0.00,VWS V14.01,2013-01-02 02:43:00,
2013-01-01 21:48:00,53.8,52.4,29.96,WSW,242,13.0,15.0,95,0.00,,---,0.00,VWS V14.01,2013-01-02 02:48:00,
2013-01-01 21:53:00,53.9,52.5,29.96,WSW,242,14.0,15.0,95,0.00,,---,0.00,VWS V14.01,2013-01-02 02:53:00,
2013-01-01 21:58:00,54.0,52.6,29.96,WSW,248,15.0,16.0,95,0.00,,---,0.00,VWS V14.01,2013-01-02 02:58:00,
2013-01-01 22:03:00,53.9,52.5,29.96,WSW,251,13.0,14.0,95,0.00,,---,0.00,VWS V14.01,2013-01-02 03:03:00,
2013-01-01 22:08:00,53.9,52.5,29.96,WSW,253,14.0,15.0,95,0.00,,---,0.00,VWS V14.01,2013-01-02 03:08:00,
2013-01-01 22:13:00,53.9,52.5,29.96,WSW,256,11.0,13.0,95,0.00,,---,0.00,VWS V14.01,2013-01-02 03:13:00,
2013-01-01 22:18:00,53.8,52.4,29.96,West,259,10.0,11.0,95,0.00,,---,0.00,VWS V14.01,2013-01-02 03:18:00,
2013-01-01 22:23:00,53.8,52.4,29.94,West,261,6.0,10.0,95,0.00,,---,0.00,VWS V14.01,2013-01-02 03:23:00,
2013-01-01 22:28:00,53.7,52.3,29.94,West,262,6.0,8.0,95,0.00,,---,0.00,VWS V14.01,2013-01-02 03:28:00,
2013-01-01 22:33:00,53.7,52.3,29.94,West,263,9.0,9.0,95,0.00,,---,0.00,VWS V14.01,2013-01-02 03:33:00,
2013-01-01 22:38:00,54.1,52.7,29.94,West,265,6.0,9.0,95,0.00,,---,0.00,VWS V14.01,2013-01-02 03:38:00,
2013-01-01 22:43:00,54.4,53.0,29.94,West,267,4.0,8.0,95,0.00,,---,0.00,VWS V14.01,2013-01-02 03:43:00,
2013-01-01 22:48:00,54.4,53.0,29.94,West,271,7.0,9.0,95,0.00,,---,0.00,VWS V14.01,2013-01-02 03:48:00,
2013-01-01 22:52:00,54.0,52.3,29.95,West,275,4.0,6.0,94,0.00,,---,0.00,VWS V14.01,2013-01-02 03:52:00,
2013-01-01 22:57:00,53.3,51.6,29.95,West,277,6.0,6.0,94,0.00,,---,0.00,VWS V14.01,2013-01-02 03:57:00,
2013-01-01 23:02:00,53.1,51.4,29.95,West,279,3.0,5.0,94,0.00,,---,0.00,VWS V14.01,2013-01-02 04:02:00,
2013-01-01 23:07:00,53.5,51.8,29.94,WNW,299,3.0,7.0,94,0.00,,---,0.00,VWS V14.01,2013-01-02 04:07:00,
2013-01-01 23:12:00,53.6,52.2,29.94,NW,306,4.0,7.0,95,0.00,,---,0.00,VWS V14.01,2013-01-02 04:12:00,
2013-01-01 23:17:00,53.6,51.9,29.94,NW,306,4.0,5.0,94,0.00,,---,0.00,VWS V14.01,2013-01-02 04:17:00,
2013-01-01 23:22:00,53.9,52.5,29.93,NW,306,2.0,4.0,95,0.00,,---,0.00,VWS V14.01,2013-01-02 04:22:00,
2013-01-01 23:27:00,54.2,52.8,29.93,NW,306,0.0,1.0,95,0.00,,---,0.00,VWS V14.01,2013-01-02 04:27:00,
2013-01-01 23:32:00,54.4,53.0,29.93,NW,306,1.0,3.0,95,0.00,,---,0.00,VWS V14.01,2013-01-02 04:32:00,
2013-01-01 23:37:00,54.3,52.6,29.93,NW,306,4.0,4.0,94,0.00,,---,0.00,VWS V14.01,2013-01-02 04:37:00,
2013-01-01 23:42:00,54.3,52.6,29.93,NW,306,3.0,5.0,94,0.00,,---,0.00,VWS V14.01,2013-01-02 04:42:00,
2013-01-01 23:47:00,54.3,52.6,29.93,NW,306,2.0,6.0,94,0.00,,---,0.00,VWS V14.01,2013-01-02 04:47:00,
2013-01-01 23:52:00,54.3,52.6,29.93,NW,306,2.0,5.0,94,0.00,,---,0.00,VWS V14.01,2013-01-02 04:52:00,
2013-01-01 23:57:00,54.2,52.5,29.93,NW,306,2.0,4.0,94,0.00,,---,0.00,VWS V14.01,2013-01-02 04:57:00,